Time;durP1;ratioP1;P1;durP2;ratioP2;P2;SDS_P1;SDS_P2;PMS_P1;PMS_P2;Temp;Humidity;BMP_temperature;BMP_pressure;BME280_temperature;BME280_humidity;BME280_pressure;Samples;Min_cycle;Max_cycle;Signal;HPM_P1;HPM_P2
2022/08/17 00:01:25;;;;;;;6.53;3.05;;;;;;;23.52;52.06;99633.59;5034858;28;20029;-80
2022/08/17 00:03:52;;;;;;;6.10;3.45;;;;;;;23.48;52.00;99632.88;5034444;28;20025;-80
2022/08/17 00:06:21;;;;;;;5.93;3.20;;;;;;;23.43;52.55;99628.63;5035011;28;20037;-81
2022/08/17 00:08:53;;;;;;;5.00;3.13;;;;;;;23.34;52.91;99618.09;5036189;28;20045;-79
2022/08/17 00:11:27;;;;;;;5.60;3.30;;;;;;;23.28;53.18;99627.41;5035004;28;20025;-79
2022/08/17 00:13:59;;;;;;;4.93;2.80;;;;;;;23.28;53.29;99619.06;5034423;28;20128;-80
2022/08/17 00:16:33;;;;;;;5.88;3.42;;;;;;;23.25;53.65;99615.16;5034580;28;20045;-80
2022/08/17 00:19:04;;;;;;;5.28;3.08;;;;;;;23.23;53.65;99614.81;5034212;28;20029;-79
2022/08/17 00:21:30;;;;;;;4.97;2.85;;;;;;;23.18;53.77;99606.19;5034555;28;20033;-80
2022/08/17 00:23:56;;;;;;;6.32;3.00;;;;;;;23.17;53.46;99601.88;5034151;28;20036;-81
2022/08/17 00:26:23;;;;;;;5.60;3.42;;;;;;;23.19;53.24;99605.00;5034342;28;20031;-81
2022/08/17 00:28:48;;;;;;;5.82;3.45;;;;;;;23.17;53.30;99602.63;5034523;28;20037;-82
2022/08/17 00:31:13;;;;;;;5.95;3.20;;;;;;;23.24;52.89;99599.72;5034163;28;20038;-82
2022/08/17 00:33:41;;;;;;;5.80;3.58;;;;;;;23.18;52.98;99598.69;5034324;28;20042;-82
2022/08/17 00:36:06;;;;;;;5.82;3.35;;;;;;;23.18;53.10;99606.19;5034433;28;20033;-82
2022/08/17 00:38:34;;;;;;;5.75;3.25;;;;;;;23.20;53.04;99601.81;5034046;28;20474;-83
2022/08/17 00:41:04;;;;;;;8.63;3.28;;;;;;;23.18;53.09;99607.00;5034297;28;20354;-83
2022/08/17 00:43:43;;;;;;;5.55;3.30;;;;;;;23.11;53.17;99607.94;5033944;28;20458;-82
2022/08/17 00:46:29;;;;;;;6.03;3.20;;;;;;;23.08;53.46;99602.47;5034590;28;20040;-81
2022/08/17 00:48:55;;;;;;;5.72;3.45;;;;;;;23.07;53.28;99596.13;5033869;28;20091;-80
2022/08/17 00:51:41;;;;;;;5.47;3.10;;;;;;;23.07;53.16;99595.34;5016356;28;20041;-81
2022/08/17 00:54:19;;;;;;;5.13;3.40;;;;;;;23.13;52.88;99592.84;5034076;28;20033;-81
2022/08/17 00:56:48;;;;;;;5.35;2.95;;;;;;;23.06;53.19;99597.34;5033676;28;20634;-81
2022/08/17 00:59:17;;;;;;;6.03;3.58;;;;;;;22.95;53.63;99596.03;5033686;28;20104;-81
2022/08/17 01:01:43;;;;;;;7.05;3.25;;;;;;;22.88;53.93;99602.53;5033511;28;20029;-82
2022/08/17 01:04:11;;;;;;;6.18;4.03;;;;;;;22.81;54.13;99591.53;5033394;28;20025;-82
2022/08/17 01:06:36;;;;;;;6.13;3.30;;;;;;;22.80;54.41;99589.97;5033570;28;20029;-83
2022/08/17 01:09:03;;;;;;;5.47;3.47;;;;;;;22.80;54.31;99590.75;5033825;28;20453;-81
2022/08/17 01:11:30;;;;;;;6.20;3.50;;;;;;;22.77;54.54;99579.75;5033568;28;20064;-82
2022/08/17 01:13:56;;;;;;;6.82;3.67;;;;;;;22.73;54.67;99581.81;5033631;28;20065;-81
2022/08/17 01:16:29;;;;;;;7.22;4.13;;;;;;;22.66;54.95;99585.50;5033656;28;20025;-82
2022/08/17 01:18:59;;;;;;;6.20;3.75;;;;;;;22.71;54.91;99576.69;5033674;28;20041;-82
2022/08/17 01:21:48;;;;;;;6.45;3.40;;;;;;;22.61;55.35;99582.47;5033296;28;20029;-82
2022/08/17 01:24:15;;;;;;;5.65;3.40;;;;;;;22.49;55.68;99581.91;5032759;28;20029;-82
2022/08/17 01:26:42;;;;;;;6.43;4.15;;;;;;;22.39;55.94;99585.69;5033345;28;20033;-81
2022/08/17 01:29:08;;;;;;;7.05;3.78;;;;;;;22.34;56.17;99583.44;5032936;28;20388;-82
2022/08/17 01:31:38;;;;;;;7.38;3.58;;;;;;;22.35;56.63;99587.78;5033100;28;20356;-81
2022/08/17 01:34:08;;;;;;;6.43;3.60;;;;;;;22.21;56.85;99583.28;5033184;28;20069;-81
2022/08/17 01:36:35;;;;;;;5.22;3.58;;;;;;;22.30;56.56;99585.47;5033124;28;20127;-81
2022/08/17 01:39:01;;;;;;;6.60;3.67;;;;;;;22.31;56.73;99581.50;5032998;28;20477;-81
2022/08/17 01:41:27;;;;;;;4.80;2.92;;;;;;;22.33;56.62;99581.84;5033034;28;20026;-80
2022/08/17 01:43:57;;;;;;;7.20;3.92;;;;;;;22.31;56.72;99578.72;5033032;28;20037;-80
2022/08/17 01:46:26;;;;;;;8.15;3.53;;;;;;;22.23;57.09;99576.53;5015274;28;20029;-80
2022/08/17 01:48:52;;;;;;;13.82;3.63;;;;;;;22.19;57.24;99590.47;5032884;28;20389;-81
2022/08/17 01:51:19;;;;;;;6.28;3.72;;;;;;;21.93;58.25;99587.34;5015246;28;20033;-81
2022/08/17 01:53:52;;;;;;;6.43;3.40;;;;;;;21.88;58.45;99584.28;5033071;28;20029;-81
2022/08/17 01:56:21;;;;;;;6.93;3.90;;;;;;;21.83;58.96;99584.75;5032679;28;20059;-80
2022/08/17 01:58:47;;;;;;;7.53;4.15;;;;;;;21.74;59.27;99581.78;5032615;28;20030;-81
2022/08/17 02:01:14;;;;;;;6.28;3.90;;;;;;;21.70;59.57;99584.63;5032978;28;20515;-81
2022/08/17 02:03:40;;;;;;;7.90;4.13;;;;;;;21.48;60.79;99584.19;5014665;28;20038;-82
2022/08/17 02:06:06;;;;;;;6.35;3.80;;;;;;;21.33;61.60;99591.16;5014933;28;20043;-81
2022/08/17 02:08:34;;;;;;;7.07;4.22;;;;;;;21.15;62.53;99585.06;5032756;28;20420;-81
2022/08/17 02:11:02;;;;;;;12.27;4.38;;;;;;;20.99;63.62;99588.47;5033093;28;20029;-81
2022/08/17 02:13:28;;;;;;;14.70;4.78;;;;;;;20.88;64.34;99582.34;5032753;28;20042;-82
2022/08/17 02:15:55;;;;;;;11.00;4.55;;;;;;;20.80;64.61;99587.16;5032499;28;20083;-82
2022/08/17 02:18:21;;;;;;;10.30;4.53;;;;;;;20.69;65.06;99586.56;5032639;28;20060;-80
2022/08/17 02:20:46;;;;;;;7.47;4.50;;;;;;;20.72;65.08;99583.72;5032583;28;20444;-80
2022/08/17 02:23:12;;;;;;;11.70;4.90;;;;;;;20.81;64.47;99580.44;5032300;28;20036;-80
2022/08/17 02:25:41;;;;;;;8.70;4.85;;;;;;;20.78;64.85;99583.25;5014814;28;20171;-80
2022/08/17 02:28:06;;;;;;;8.25;4.72;;;;;;;20.71;64.96;99579.41;5032311;28;20484;-80
2022/08/17 02:30:32;;;;;;;6.82;4.05;;;;;;;20.68;65.24;99580.22;5032583;28;20164;-80
2022/08/17 02:32:58;;;;;;;7.53;4.43;;;;;;;20.57;65.58;99574.06;5032117;28;20120;-79
2022/08/17 02:35:23;;;;;;;8.80;3.60;;;;;;;20.55;65.61;99575.66;5032576;28;20025;-79
2022/08/17 02:37:49;;;;;;;;;;;;;;;20.51;65.88;99572.19;5035266;28;20034;-79
2022/08/17 02:40:15;;;;;;;6.82;4.22;;;;;;;20.52;65.77;99566.22;5036151;28;19917;-80
2022/08/17 02:42:42;;;;;;;9.38;4.60;;;;;;;20.54;65.51;99574.09;5036276;28;20029;-80
2022/08/17 02:45:13;;;;;;;7.50;4.47;;;;;;;20.56;65.20;99566.94;5036385;28;20522;-80
2022/08/17 02:47:39;;;;;;;8.40;4.20;;;;;;;20.59;64.88;99571.66;5018416;28;20053;-79
2022/08/17 02:50:07;;;;;;;9.70;4.45;;;;;;;20.63;64.35;99577.91;5035942;28;20045;-80
2022/08/17 02:52:37;;;;;;;9.23;4.38;;;;;;;20.70;64.13;99577.03;5035864;28;20057;-80
2022/08/17 02:55:07;;;;;;;7.40;4.25;;;;;;;20.80;63.31;99569.78;5036303;28;20025;-80
2022/08/17 02:57:33;;;;;;;8.15;4.25;;;;;;;20.91;62.59;99565.66;5018603;28;20061;-80
2022/08/17 02:59:58;;;;;;;7.53;4.03;;;;;;;20.97;62.19;99565.97;5037088;28;20076;-80
2022/08/17 03:02:23;;;;;;;8.93;3.72;;;;;;;20.97;62.12;99566.75;5035971;28;20576;-79
2022/08/17 03:04:49;;;;;;;6.90;3.40;;;;;;;20.99;61.86;99555.25;5035643;28;20064;-80
2022/08/17 03:07:14;;;;;;;7.85;4.57;;;;;;;20.98;61.73;99559.25;5035948;28;20037;-80
2022/08/17 03:09:40;;;;;;;6.97;3.80;;;;;;;21.04;61.56;99560.34;5035679;28;20034;-80
2022/08/17 03:12:11;;;;;;;5.57;3.50;;;;;;;21.13;60.89;99554.28;5035537;28;20033;-79
2022/08/17 03:14:40;;;;;;;11.85;3.67;;;;;;;21.15;61.09;99552.66;5035372;28;20035;-80
2022/08/17 03:17:06;;;;;;;6.85;3.53;;;;;;;21.12;61.19;99553.50;5035474;28;20033;-79
2022/08/17 03:19:31;;;;;;;6.38;3.38;;;;;;;21.16;61.15;99551.44;5035717;28;20116;-79
2022/08/17 03:21:57;;;;;;;;;;;;;;;21.10;61.22;99550.34;5018315;28;20029;-79
2022/08/17 03:24:22;;;;;;;6.22;3.78;;;;;;;21.07;61.34;99553.19;5035339;28;19963;-79
2022/08/17 03:26:48;;;;;;;7.68;3.63;;;;;;;21.06;61.59;99555.19;5035480;28;20410;-81
2022/08/17 03:29:17;;;;;;;5.78;3.40;;;;;;;20.98;61.96;99548.94;5035535;28;20033;-80
2022/08/17 03:31:46;;;;;;;6.45;3.25;;;;;;;20.94;62.05;99555.75;5035613;28;20044;-81
2022/08/17 03:34:12;;;;;;;7.40;3.85;;;;;;;20.82;62.54;99548.00;5017639;28;20040;-81
2022/08/17 03:36:38;;;;;;;6.18;3.60;;;;;;;20.78;62.83;99550.84;5035061;28;20033;-80
2022/08/17 03:39:03;;;;;;;6.13;3.70;;;;;;;20.65;63.41;99549.84;5035373;28;20033;-80
2022/08/17 03:41:29;;;;;;;;;;;;;;;20.60;63.56;99550.31;5035790;28;20052;-79
2022/08/17 03:43:54;;;;;;;7.55;3.85;;;;;;;20.63;63.26;99550.25;5034866;28;20055;-80
2022/08/17 03:57:19;;;;;;;6.38;3.47;;;;;;;20.63;62.73;99560.53;5033638;28;20447;-79
2022/08/17 03:59:44;;;;;;;8.00;3.85;;;;;;;20.73;62.55;99560.41;5016071;28;20041;-79
2022/08/17 04:02:14;;;;;;;7.32;3.53;;;;;;;20.67;62.41;99555.75;5016007;28;20036;-80
2022/08/17 04:04:39;;;;;;;6.05;3.47;;;;;;;20.67;62.47;99559.31;5033450;28;20034;-80
2022/08/17 04:07:06;;;;;;;6.70;4.07;;;;;;;20.74;62.58;99561.19;5033817;28;20040;-80
2022/08/17 04:09:31;;;;;;;7.68;3.83;;;;;;;20.75;62.53;99562.75;5015775;28;20095;-79
2022/08/17 04:11:56;;;;;;;7.63;4.10;;;;;;;20.77;62.64;99565.88;5033574;28;20401;-79
2022/08/17 04:14:22;;;;;;;6.82;3.80;;;;;;;20.76;62.65;99556.00;5033571;28;20037;-79
2022/08/17 04:16:48;;;;;;;8.00;3.85;;;;;;;20.65;63.18;99561.69;5033031;28;20490;-80
2022/08/17 04:19:13;;;;;;;7.40;3.50;;;;;;;20.58;63.22;99575.63;5033051;28;20036;-79
2022/08/17 04:21:38;;;;;;;6.45;3.55;;;;;;;20.66;63.12;99570.78;5033444;28;20037;-79
2022/08/17 04:24:04;;;;;;;;;;;;;;;20.56;63.83;99569.72;5033507;28;20083;-79
2022/08/17 04:26:29;;;;;;;6.13;3.67;;;;;;;20.56;63.57;99568.94;5033178;28;19920;-78
2022/08/17 04:28:55;;;;;;;6.45;3.90;;;;;;;20.48;63.84;99571.00;5032989;28;20118;-78
2022/08/17 04:31:21;;;;;;;7.13;3.95;;;;;;;20.45;63.66;99576.56;5033070;28;20448;-78
2022/08/17 04:33:47;;;;;;;6.97;3.50;;;;;;;20.46;63.79;99580.91;5033071;28;20089;-78
2022/08/17 04:36:14;;;;;;;7.63;3.22;;;;;;;20.43;64.02;99586.06;5015478;28;20372;-80
2022/08/17 04:38:41;;;;;;;8.07;4.10;;;;;;;20.48;63.59;99586.81;5032940;28;20383;-80
2022/08/17 04:43:57;;;;;;;6.50;3.30;;;;;;;20.57;63.10;99582.34;5032867;28;20040;-81
2022/08/17 04:46:26;;;;;;;6.15;3.60;;;;;;;20.62;62.96;99584.66;5032798;28;20029;-81
2022/08/17 04:48:55;;;;;;;5.72;3.60;;;;;;;20.53;63.50;99578.84;4995181;28;1080828;-81
2022/08/17 04:51:35;;;;;;;7.22;3.63;;;;;;;20.41;63.98;99587.69;5016101;28;20559;-80
2022/08/17 04:54:17;;;;;;;6.60;3.40;;;;;;;20.43;63.77;99591.59;5033652;28;20116;-79
2022/08/17 04:56:43;;;;;;;7.22;3.75;;;;;;;20.37;64.52;99592.44;5033516;28;20025;-79
2022/08/17 04:59:14;;;;;;;6.35;3.50;;;;;;;20.33;64.77;99588.97;5033627;28;20029;-78
2022/08/17 05:01:41;;;;;;;5.15;3.20;;;;;;;20.37;64.59;99597.97;5032877;28;20029;-79
2022/08/17 05:04:09;;;;;;;6.65;3.45;;;;;;;20.36;64.44;99599.19;5032797;28;20049;-79
2022/08/17 05:06:35;;;;;;;7.85;3.65;;;;;;;20.32;64.54;99599.22;5032915;28;20468;-79
2022/08/17 05:09:01;;;;;;;6.22;3.70;;;;;;;20.34;64.17;99604.34;5033457;28;20040;-80
2022/08/17 05:11:27;;;;;;;6.70;3.92;;;;;;;20.36;64.17;99596.41;5032651;28;20152;-80
2022/08/17 05:13:55;;;;;;;5.72;3.15;;;;;;;20.39;63.77;99601.91;5015273;28;20033;-80
2022/08/17 05:16:22;;;;;;;5.45;3.15;;;;;;;20.46;63.69;99606.56;5015537;28;20347;-79
2022/08/17 05:18:48;;;;;;;8.18;3.28;;;;;;;20.48;62.96;99601.41;5015197;28;20029;-78
2022/08/17 05:21:14;;;;;;;7.65;3.35;;;;;;;20.63;62.61;99593.72;5033581;28;20448;-78
2022/08/17 05:23:40;;;;;;;6.05;3.30;;;;;;;20.69;62.42;99597.63;5032407;28;20029;-78
2022/08/17 05:26:09;;;;;;;5.60;3.60;;;;;;;20.70;62.12;99591.66;5033227;28;20441;-77
2022/08/17 05:28:37;;;;;;;6.63;3.50;;;;;;;20.77;61.75;99581.69;5014880;28;20494;-76
2022/08/17 05:31:03;;;;;;;7.10;3.50;;;;;;;20.86;61.46;99579.19;5032983;28;20528;-77
2022/08/17 05:33:33;;;;;;;6.25;3.08;;;;;;;20.90;61.03;99585.47;5032718;28;20051;-77
2022/08/17 05:36:00;;;;;;;5.80;2.95;;;;;;;20.97;61.08;99585.34;5032693;28;20033;-78
2022/08/17 05:38:27;;;;;;;7.93;3.17;;;;;;;21.03;60.83;99583.69;5032295;28;20040;-78
2022/08/17 05:40:53;;;;;;;5.47;2.67;;;;;;;21.16;60.68;99587.44;5014734;28;20029;-77
2022/08/17 05:43:22;;;;;;;6.35;3.40;;;;;;;21.09;60.94;99586.75;5032056;28;20040;-79
2022/08/17 05:45:51;;;;;;;5.60;2.92;;;;;;;21.19;60.57;99589.38;5014624;28;20053;-78
2022/08/17 05:48:16;;;;;;;5.95;3.15;;;;;;;21.20;60.27;99588.19;5032499;28;20045;-77
2022/08/17 05:50:53;;;;;;;6.72;3.17;;;;;;;21.24;60.51;99585.34;5014532;28;20053;-79
2022/08/17 05:53:56;;;;;;;8.10;3.30;;;;;;;21.11;61.04;99585.13;5032466;28;20087;-78
2022/08/17 05:56:42;;;;;;;5.90;3.20;;;;;;;21.12;60.89;99575.63;5031849;28;20025;-78
2022/08/17 05:59:42;;;;;;;6.45;2.95;;;;;;;21.17;60.58;99572.41;5032106;28;20095;-78
2022/08/17 06:02:13;;;;;;;5.32;2.75;;;;;;;21.29;60.17;99574.59;5013900;28;20044;-77
2022/08/17 06:04:41;;;;;;;5.97;2.90;;;;;;;21.41;59.80;99572.44;5032047;28;20329;-79
2022/08/17 06:07:29;;;;;;;5.40;2.97;;;;;;;21.50;59.65;99583.75;5013887;28;20033;-78
2022/08/17 06:10:42;;;;;;;6.93;2.97;;;;;;;21.52;59.80;99578.59;5013847;28;20060;-78
2022/08/17 06:13:14;;;;;;;5.03;2.90;;;;;;;21.62;59.49;99574.84;5031793;28;20037;-78
2022/08/17 06:16:08;;;;;;;7.10;3.17;;;;;;;21.66;59.60;99567.25;5014117;28;20040;-78
2022/08/17 06:18:42;;;;;;;5.47;2.85;;;;;;;21.70;59.78;99564.44;5031743;28;20033;-78
2022/08/17 06:21:12;;;;;;;4.95;2.80;;;;;;;21.78;59.81;99561.09;5031582;28;20033;-78
2022/08/17 06:23:55;;;;;;;6.93;2.80;;;;;;;21.95;59.20;99561.19;5031261;28;20087;-78
2022/08/17 06:26:30;;;;;;;6.72;3.47;;;;;;;22.10;58.43;99560.53;5031657;28;20120;-78
2022/08/17 06:29:14;;;;;;;5.35;2.40;;;;;;;22.25;58.32;99565.78;5031485;28;20033;-77
2022/08/17 06:31:40;;;;;;;4.70;2.33;;;;;;;22.34;58.08;99572.34;5031521;28;20530;-77
2022/08/17 06:34:09;;;;;;;5.47;3.10;;;;;;;22.38;57.87;99567.50;5031589;28;20029;-78
2022/08/17 06:36:53;;;;;;;5.70;2.92;;;;;;;22.37;58.02;99570.69;5013530;28;20033;-76
2022/08/17 06:39:42;;;;;;;5.38;2.65;;;;;;;22.46;57.91;99573.66;5031078;28;20373;-78
2022/08/17 06:42:24;;;;;;;6.25;2.70;;;;;;;22.41;58.25;99566.63;5031436;28;20084;-78
2022/08/17 06:45:01;;;;;;;6.82;2.85;;;;;;;22.44;58.79;99568.56;5013717;28;20087;-77
2022/08/17 06:47:33;;;;;;;5.32;2.50;;;;;;;22.52;58.10;99583.84;5031515;28;20048;-77
2022/08/17 06:50:26;;;;;;;6.43;3.00;;;;;;;22.33;58.93;99601.25;5031374;28;20072;-76
2022/08/17 06:53:10;;;;;;;4.60;2.30;;;;;;;22.31;58.19;99598.13;5013477;28;20030;-75
2022/08/17 06:55:57;;;;;;;3.65;2.00;;;;;;;22.57;56.16;99607.53;5031375;28;20044;-76
2022/08/17 06:58:24;;;;;;;4.97;2.42;;;;;;;22.58;56.12;99609.09;5030811;28;20036;-77
2022/08/17 07:00:52;;;;;;;5.32;2.33;;;;;;;22.69;55.89;99611.66;5031083;28;20041;-77
2022/08/17 07:03:30;;;;;;;5.60;2.05;;;;;;;22.70;55.53;99633.41;5030574;28;20509;-77
2022/08/17 07:05:59;;;;;;;4.32;2.10;;;;;;;22.48;55.94;99633.06;5030816;28;20045;-77
2022/08/17 07:08:53;;;;;;;4.70;2.22;;;;;;;22.54;55.87;99616.72;5030648;28;20041;-77
2022/08/17 07:11:31;;;;;;;4.18;1.80;;;;;;;22.66;55.25;99626.34;5031049;28;20465;-77
2022/08/17 07:14:12;;;;;;;6.38;2.50;;;;;;;22.73;55.02;99623.44;5013234;28;20078;-76
2022/08/17 07:16:50;;;;;;;4.60;2.20;;;;;;;22.76;54.35;99628.13;5030742;28;20495;-76
2022/08/17 07:19:19;;;;;;;4.07;2.08;;;;;;;22.80;54.52;99623.28;5030770;28;20037;-77
2022/08/17 07:22:13;;;;;;;4.47;2.10;;;;;;;22.71;54.52;99628.66;5031418;28;20116;-79
2022/08/17 07:24:50;;;;;;;8.00;2.22;;;;;;;22.65;55.13;99628.34;5034067;28;20087;-77
2022/08/17 07:27:19;;;;;;;3.90;2.05;;;;;;;22.71;54.71;99623.88;5034308;28;20120;-78
2022/08/17 07:29:56;;;;;;;5.57;2.10;;;;;;;22.66;54.84;99624.38;5016625;28;20515;-78
2022/08/17 07:32:39;;;;;;;5.60;2.38;;;;;;;22.68;55.03;99633.06;5034407;28;20552;-77
2022/08/17 07:35:09;;;;;;;6.95;2.50;;;;;;;22.66;55.45;99640.22;5016712;28;20037;-77
2022/08/17 07:38:05;;;;;;;5.10;2.40;;;;;;;22.66;55.29;99643.00;5034419;28;20116;-78
2022/08/17 07:40:37;;;;;;;5.80;2.10;;;;;;;22.69;55.67;99639.41;5016701;28;20033;-79
2022/08/17 07:43:17;;;;;;;5.93;2.60;;;;;;;22.74;55.94;99647.22;5034091;28;20045;-78
2022/08/17 07:48:49;;;;;;;7.28;2.90;;;;;;;22.77;56.55;99647.13;5034080;28;20052;-78
2022/08/17 07:51:30;;;;;;;5.75;2.92;;;;;;;22.82;56.86;99654.19;5034388;28;20041;-79
2022/08/17 07:54:00;;;;;;;5.32;2.80;;;;;;;22.90;56.75;99650.06;5016335;28;20026;-77
2022/08/17 07:56:40;;;;;;;5.50;3.10;;;;;;;22.97;56.75;99654.66;5033967;28;20429;-77
2022/08/17 07:59:12;;;;;;;5.18;3.15;;;;;;;23.01;56.76;99658.97;5033847;28;20452;-77
2022/08/17 08:01:39;;;;;;;6.10;2.85;;;;;;;23.09;56.25;99652.03;5033691;28;20108;-77
2022/08/17 08:04:27;;;;;;;5.90;3.10;;;;;;;23.11;56.75;99654.38;5033960;28;20421;-77
2022/08/17 08:06:56;;;;;;;6.35;3.40;;;;;;;23.17;56.77;99652.63;5021239;28;20049;-77
2022/08/17 08:09:58;;;;;;;7.68;3.70;;;;;;;23.18;56.78;99650.63;5033733;28;20092;-77
2022/08/17 08:12:28;;;;;;;6.82;3.47;;;;;;;23.14;57.35;99661.03;5033573;28;20029;-78
2022/08/17 08:15:17;;;;;;;6.47;3.65;;;;;;;23.16;57.52;99655.84;5034440;28;20460;-78
2022/08/17 08:17:50;;;;;;;8.35;4.32;;;;;;;23.16;57.43;99645.50;5034151;28;20021;-79
2022/08/17 08:20:16;;;;;;;7.95;3.95;;;;;;;23.28;57.39;99649.63;5033729;28;20034;-77
2022/08/17 08:23:05;;;;;;;6.85;3.78;;;;;;;23.33;57.57;99644.31;5015686;28;20033;-77
2022/08/17 08:25:47;;;;;;;6.97;3.97;;;;;;;23.32;57.75;99650.31;5032740;28;20157;-78
2022/08/17 08:28:54;;;;;;;6.82;3.97;;;;;;;23.32;57.71;99642.75;5015782;28;20137;-77
2022/08/17 08:31:47;;;;;;;6.88;3.92;;;;;;;23.26;58.06;99643.72;5032798;28;20041;-78
2022/08/17 08:34:31;;;;;;;8.35;3.78;;;;;;;23.31;57.87;99646.75;5033059;28;20113;-78
2022/08/17 08:37:20;;;;;;;8.30;4.32;;;;;;;23.29;57.85;99648.41;5033291;28;20033;-78
2022/08/17 08:40:07;;;;;;;6.30;3.97;;;;;;;23.26;58.39;99635.38;5033030;28;20117;-76
2022/08/17 08:43:02;;;;;;;7.35;4.13;;;;;;;23.14;58.69;99647.16;5033002;28;20117;-75
2022/08/17 08:46:27;;;;;;;7.95;4.43;;;;;;;23.27;58.16;99646.06;4997730;28;20048;-77
2022/08/17 08:49:20;;;;;;;9.57;5.20;;;;;;;23.34;58.25;99662.56;4952391;29;20058;-78
2022/08/17 08:51:51;;;;;;;6.60;4.07;;;;;;;23.32;58.12;99662.19;5033488;28;20033;-75
2022/08/17 08:54:42;;;;;;;10.55;5.05;;;;;;;23.37;58.35;99666.47;5033073;28;20065;-78
2022/08/17 08:57:26;;;;;;;9.45;4.55;;;;;;;23.42;58.50;99669.53;5033288;28;20025;-80
2022/08/17 09:00:20;;;;;;;7.95;4.03;;;;;;;23.53;58.04;99658.16;5032641;28;20448;-78
2022/08/17 09:02:45;;;;;;;7.50;4.07;;;;;;;23.43;58.29;99664.75;5033031;28;20040;-78
2022/08/17 09:05:29;;;;;;;7.60;4.17;;;;;;;23.40;58.97;99671.94;5033051;28;20389;-78
2022/08/17 09:08:16;;;;;;;7.22;3.90;;;;;;;23.44;58.39;99671.88;5033198;28;20260;-78
2022/08/17 09:10:59;;;;;;;6.53;4.05;;;;;;;23.41;58.13;99667.97;5032988;28;20041;-77
2022/08/17 09:13:43;;;;;;;7.50;4.35;;;;;;;23.33;58.55;99669.31;5033662;28;20035;-78
2022/08/17 09:16:19;;;;;;;8.07;4.32;;;;;;;23.27;59.04;99661.94;5032607;28;20036;-78
2022/08/17 09:18:50;;;;;;;9.55;5.25;;;;;;;23.25;58.97;99658.81;5033137;28;20033;-78
2022/08/17 09:21:31;;;;;;;8.35;4.35;;;;;;;23.24;59.39;99662.81;5032558;28;20088;-78
2022/08/17 09:24:19;;;;;;;8.85;5.03;;;;;;;23.22;59.43;99660.47;5032395;28;20021;-78
2022/08/17 09:27:07;;;;;;;9.70;5.05;;;;;;;23.21;59.76;99663.69;5033056;28;20025;-77
2022/08/17 09:29:43;;;;;;;13.70;4.80;;;;;;;23.25;59.64;99658.81;5032466;28;20112;-77
2022/08/17 09:32:20;;;;;;;11.23;5.28;;;;;;;23.20;59.59;99653.78;5032221;28;20040;-79
2022/08/17 09:34:53;;;;;;;7.85;4.47;;;;;;;23.10;60.32;99661.13;5032751;28;20038;-80
2022/08/17 09:37:26;;;;;;;8.07;4.63;;;;;;;23.11;59.84;99655.16;5014882;28;20376;-78
2022/08/17 09:40:10;;;;;;;8.38;4.90;;;;;;;23.10;60.43;99653.59;5032278;28;20037;-78
2022/08/17 09:42:47;;;;;;;7.30;5.00;;;;;;;23.08;60.27;99663.56;5032833;28;20029;-78
2022/08/17 09:45:23;;;;;;;8.57;5.38;;;;;;;23.11;60.30;99646.81;5031708;28;20040;-81
2022/08/17 09:48:04;;;;;;;10.63;5.32;;;;;;;23.19;59.76;99649.44;5014467;28;20053;-77
2022/08/17 09:50:37;;;;;;;8.73;5.18;;;;;;;23.26;60.01;99654.81;5032328;28;20045;-77
2022/08/17 09:53:02;;;;;;;8.77;4.93;;;;;;;23.28;59.74;99658.72;5031954;28;20040;-77
2022/08/17 09:55:42;;;;;;;8.65;5.05;;;;;;;23.29;60.03;99665.06;5032397;28;20030;-78
2022/08/17 09:58:23;;;;;;;12.15;5.72;;;;;;;23.30;59.86;99663.84;5032418;28;20044;-78
2022/08/17 10:01:01;;;;;;;10.73;5.70;;;;;;;23.29;59.83;99668.63;5032613;28;20039;-78
2022/08/17 10:03:47;;;;;;;8.38;5.10;;;;;;;23.29;59.96;99667.84;5014511;28;20061;-79
2022/08/17 10:06:25;;;;;;;10.75;5.72;;;;;;;23.25;60.31;99675.47;5013946;28;20029;-78
2022/08/17 10:09:22;;;;;;;10.48;5.35;;;;;;;23.19;60.51;99677.22;5032364;28;20070;-78
2022/08/17 10:12:16;;;;;;;8.48;4.95;;;;;;;23.13;60.49;99674.16;5032042;28;20045;-77
2022/08/17 10:14:41;;;;;;;9.57;5.45;;;;;;;23.11;60.85;99671.81;5031877;28;20467;-77
2022/08/17 10:17:24;;;;;;;11.43;6.77;;;;;;;23.07;60.45;99675.88;5032080;28;20029;-78
2022/08/17 10:20:05;;;;;;;9.93;6.28;;;;;;;22.99;60.48;99685.56;5032191;28;20053;-77
2022/08/17 10:28:22;;;;;;;11.73;6.60;;;;;;;22.79;61.75;99688.34;5031949;28;20032;-76
2022/08/17 10:30:53;;;;;;;9.98;6.47;;;;;;;22.73;61.60;99695.59;5032078;28;20051;-78
2022/08/17 10:33:23;;;;;;;11.85;7.30;;;;;;;22.67;61.90;99709.16;5031647;28;20317;-78
2022/08/17 10:36:19;;;;;;;12.90;7.50;;;;;;;22.53;62.25;99709.47;5013918;28;20032;-77
2022/08/17 10:38:47;;;;;;;12.93;8.20;;;;;;;22.46;62.24;99710.38;5031489;28;20030;-76
2022/08/17 10:41:23;;;;;;;12.45;7.40;;;;;;;22.50;62.53;99711.09;5031498;28;20129;-77
2022/08/17 10:43:48;;;;;;;;;;;;;;;22.43;63.03;99714.00;5031607;28;20083;-77
2022/08/17 10:46:23;;;;;;;12.70;7.87;;;;;;;22.53;62.65;99720.56;5031817;28;19921;-77
2022/08/17 10:49:17;;;;;;;11.20;7.35;;;;;;;22.44;63.05;99712.78;5031364;28;20056;-76
2022/08/17 10:51:46;;;;;;;12.23;7.28;;;;;;;22.51;63.12;99717.44;5031447;28;20029;-76
2022/08/17 10:54:23;;;;;;;11.88;7.97;;;;;;;22.54;63.18;99710.25;5031472;28;20091;-76
2022/08/17 10:56:51;;;;;;;12.95;7.53;;;;;;;22.37;63.70;99715.72;5031430;28;20034;-76
2022/08/17 10:59:42;;;;;;;13.23;7.53;;;;;;;22.40;63.71;99717.63;5034553;28;20037;-76
2022/08/17 11:02:24;;;;;;;13.05;8.15;;;;;;;22.32;64.01;99720.94;5035093;28;20060;-76
2022/08/17 11:04:59;;;;;;;12.75;7.47;;;;;;;22.26;64.40;99717.09;5017265;28;20072;-76
2022/08/17 11:07:57;;;;;;;13.18;7.85;;;;;;;22.18;64.59;99710.91;5035351;28;20033;-76
2022/08/17 11:10:56;;;;;;;11.57;7.65;;;;;;;22.18;64.78;99708.91;5034938;28;20032;-76
2022/08/17 11:13:27;;;;;;;12.57;7.70;;;;;;;22.15;64.66;99706.19;5034883;28;20604;-77
2022/08/17 11:16:07;;;;;;;14.13;7.03;;;;;;;22.10;65.18;99703.91;5035194;28;20492;-76
2022/08/17 11:18:42;;;;;;;11.77;7.78;;;;;;;22.05;65.46;99712.72;5035359;28;20071;-76
2022/08/17 11:21:33;;;;;;;13.00;7.47;;;;;;;22.07;65.36;99705.53;5035316;28;20021;-76
2022/08/17 11:24:16;;;;;;;12.88;7.90;;;;;;;22.15;65.37;99703.41;5034832;28;20026;-76
2022/08/17 11:26:47;;;;;;;15.40;8.50;;;;;;;22.08;65.71;99706.31;5034812;28;20507;-77
2022/08/17 11:29:37;;;;;;;14.52;8.90;;;;;;;22.18;65.73;99705.38;5034938;28;20116;-77
2022/08/17 11:32:26;;;;;;;14.13;8.35;;;;;;;22.24;65.36;99714.75;5035023;28;20037;-78
2022/08/17 11:35:24;;;;;;;13.30;7.63;;;;;;;22.20;65.75;99714.03;5034616;28;20037;-78
2022/08/17 11:38:17;;;;;;;16.30;7.60;;;;;;;22.09;66.35;99716.22;5034856;28;20037;-77
2022/08/17 11:41:01;;;;;;;13.65;8.05;;;;;;;22.11;66.03;99714.56;5034237;28;20527;-77
2022/08/17 11:43:55;;;;;;;13.32;7.95;;;;;;;22.10;66.52;99712.22;5034149;28;20034;-77
2022/08/17 11:52:44;;;;;;;12.88;7.60;;;;;;;22.55;65.94;99707.06;5034402;28;20404;-77
2022/08/17 11:55:31;;;;;;;13.98;9.15;;;;;;;22.89;64.50;99708.78;5016702;28;20523;-77
2022/08/17 11:58:27;;;;;;;14.82;9.48;;;;;;;22.83;64.91;99716.81;5034189;28;20082;-77
2022/08/17 12:01:03;;;;;;;14.60;9.57;;;;;;;22.80;64.87;99712.09;5016623;28;20053;-76
2022/08/17 12:03:32;;;;;;;15.73;9.73;;;;;;;22.96;65.02;99708.63;5016478;28;20044;-78
2022/08/17 12:06:05;;;;;;;19.20;10.93;;;;;;;23.18;63.82;99711.72;5034639;28;20163;-76
2022/08/17 12:08:33;;;;;;;16.27;9.90;;;;;;;23.42;63.17;99713.19;5033634;28;20029;-76
2022/08/17 12:11:03;;;;;;;17.60;11.50;;;;;;;23.15;63.58;99712.59;5033859;28;20087;-77
2022/08/17 12:13:33;;;;;;;17.90;10.30;;;;;;;23.69;62.45;99711.00;5016008;28;20338;-77
2022/08/17 12:15:59;;;;;;;17.30;10.38;;;;;;;23.66;62.63;99706.28;5033672;28;20033;-77
2022/08/17 12:18:28;;;;;;;21.27;13.20;;;;;;;23.59;62.49;99714.03;5033987;28;20032;-77
2022/08/17 12:21:21;;;;;;;17.33;10.95;;;;;;;23.66;62.33;99706.28;5033772;28;20034;-77
2022/08/17 12:23:53;;;;;;;17.90;11.50;;;;;;;23.89;61.90;99710.13;5033971;28;20084;-77
2022/08/17 12:26:21;;;;;;;19.02;11.10;;;;;;;23.94;61.84;99710.38;5033957;28;20126;-76
2022/08/17 12:28:52;;;;;;;17.38;10.38;;;;;;;24.06;61.50;99706.13;5015998;28;20037;-77
2022/08/17 12:31:23;;;;;;;16.70;11.32;;;;;;;23.98;61.79;99710.28;5015882;28;20464;-77
2022/08/17 12:33:50;;;;;;;16.65;10.95;;;;;;;24.44;60.43;99713.91;5033571;28;20079;-77